createdAt,value
2022-12-01T00:01:06.317Z,4.03
2022-12-01T00:03:32.796Z,4.05
2022-12-01T00:06:20.593Z,4.06
2022-12-01T00:09:07.924Z,4.08
2022-12-01T00:11:35.730Z,4.08
2022-12-01T00:14:02.516Z,4.08
2022-12-01T00:16:29.161Z,4.09
2022-12-01T00:18:55.830Z,4.10
2022-12-01T00:21:23.634Z,4.08
2022-12-01T00:23:52.615Z,4.10
2022-12-01T00:26:20.950Z,4.12
2022-12-01T00:29:05.698Z,4.13
2022-12-01T00:31:32.128Z,4.15
2022-12-01T00:33:58.513Z,4.15
2022-12-01T00:36:25.201Z,4.16
2022-12-01T00:38:54.132Z,4.16
2022-12-01T00:41:21.058Z,4.17
2022-12-01T00:43:47.407Z,4.19
2022-12-01T00:46:13.802Z,4.20
2022-12-01T00:48:40.205Z,4.21
2022-12-01T00:51:06.691Z,4.24
2022-12-01T00:53:33.054Z,4.25
2022-12-01T00:55:59.864Z,4.28
2022-12-01T00:58:26.232Z,4.27
2022-12-01T01:01:00.720Z,4.30
2022-12-01T01:03:27.828Z,4.32
2022-12-01T01:05:54.337Z,4.32
2022-12-01T01:08:20.940Z,4.31
2022-12-01T01:10:48.452Z,4.34
2022-12-01T01:13:15.610Z,4.34
2022-12-01T01:15:42.403Z,4.36
2022-12-01T01:18:11.187Z,4.36
2022-12-01T01:20:37.524Z,4.37
2022-12-01T01:23:03.872Z,4.39
2022-12-01T01:25:32.085Z,4.39
2022-12-01T01:27:58.423Z,4.42
2022-12-01T01:30:24.856Z,4.42
2022-12-01T01:32:51.332Z,4.42
2022-12-01T01:35:17.784Z,4.43
2022-12-01T01:37:44.184Z,4.43
2022-12-01T01:40:11.328Z,4.44
2022-12-01T01:42:37.681Z,4.46
2022-12-01T01:45:04.487Z,4.47
2022-12-01T01:47:34.820Z,4.48
2022-12-01T01:50:08.337Z,4.48
2022-12-01T01:52:41.436Z,4.49
2022-12-01T01:55:08.751Z,4.50
2022-12-01T01:57:36.319Z,4.51
2022-12-01T02:00:17.186Z,4.51
2022-12-01T02:02:46.366Z,4.52
2022-12-01T02:05:19.195Z,4.52
2022-12-01T02:07:47.151Z,4.53
2022-12-01T02:10:15.209Z,4.52
2022-12-01T02:13:14.794Z,4.52
2022-12-01T02:16:07.637Z,4.53
2022-12-01T02:18:49.429Z,4.52
2022-12-01T02:21:27.542Z,4.50
2022-12-01T02:24:02.763Z,4.50
2022-12-01T02:26:55.479Z,4.50
2022-12-01T02:29:38.557Z,4.47
2022-12-01T02:32:19.593Z,4.49
2022-12-01T02:34:57.492Z,4.50
2022-12-01T02:37:28.829Z,4.50
2022-12-01T02:40:23.846Z,4.49
2022-12-01T02:43:02.590Z,4.50
2022-12-01T02:45:41.245Z,4.49
2022-12-01T02:48:13.017Z,4.48
2022-12-01T02:50:41.123Z,4.50
2022-12-01T02:53:10.409Z,4.48
2022-12-01T02:55:36.755Z,4.49
2022-12-01T02:58:13.185Z,4.49
2022-12-01T03:00:39.811Z,4.47
2022-12-01T03:03:18.621Z,4.47
2022-12-01T03:06:15.770Z,4.47
2022-12-01T03:08:52.392Z,4.48
2022-12-01T03:11:29.004Z,4.45
2022-12-01T03:14:15.014Z,4.46
2022-12-01T03:16:51.282Z,4.46
2022-12-01T03:19:27.671Z,4.47
2022-12-01T03:22:04.682Z,4.47
2022-12-01T03:24:33.128Z,4.47
2022-12-01T03:27:02.111Z,4.46
2022-12-01T03:29:38.592Z,4.47
2022-12-01T03:32:10.389Z,4.47
2022-12-01T03:34:49.861Z,4.46
2022-12-01T03:37:31.664Z,4.46
2022-12-01T03:40:01.100Z,4.44
2022-12-01T03:42:37.249Z,4.43
2022-12-01T03:45:13.448Z,4.42
2022-12-01T03:47:40.505Z,4.41
2022-12-01T03:50:13.260Z,4.39
2022-12-01T03:53:04.333Z,4.39
2022-12-01T03:55:37.826Z,4.40
2022-12-01T03:58:11.160Z,4.38
2022-12-01T04:00:38.164Z,4.36
2022-12-01T04:03:05.704Z,4.33
2022-12-01T04:05:34.459Z,4.32
2022-12-01T04:08:01.261Z,4.30
2022-12-01T04:10:27.636Z,4.27
2022-12-01T04:12:59.079Z,4.27
2022-12-01T04:15:26.683Z,4.27
2022-12-01T04:17:53.407Z,4.27
2022-12-01T04:20:20.220Z,4.27
2022-12-01T04:22:46.562Z,4.26
2022-12-01T04:25:13.012Z,4.26
2022-12-01T04:27:39.517Z,4.25
2022-12-01T04:30:07.264Z,4.27
2022-12-01T04:32:40.551Z,4.25
2022-12-01T04:35:08.946Z,4.24
2022-12-01T04:37:35.345Z,4.23
2022-12-01T04:40:01.716Z,4.23
2022-12-01T04:42:29.114Z,4.22
2022-12-01T04:44:55.505Z,4.21
2022-12-01T04:47:21.851Z,4.20
2022-12-01T04:49:49.296Z,4.18
2022-12-01T04:52:15.975Z,4.19
2022-12-01T04:54:42.315Z,4.18
2022-12-01T04:57:08.657Z,4.18
2022-12-01T04:59:35.174Z,4.16
2022-12-01T05:02:02.710Z,4.17
2022-12-01T05:04:31.124Z,4.17
2022-12-01T05:06:57.457Z,4.16
2022-12-01T05:09:23.779Z,4.14
2022-12-01T05:11:50.114Z,4.11
2022-12-01T05:14:16.480Z,4.10
2022-12-01T05:16:42.848Z,4.04
2022-12-01T05:19:28.039Z,3.98
2022-12-01T05:21:54.396Z,3.91
2022-12-01T05:24:21.409Z,3.84
2022-12-01T05:26:47.867Z,3.75
2022-12-01T05:29:14.360Z,3.70
2022-12-01T05:31:40.984Z,3.73
2022-12-01T05:34:08.153Z,3.77
2022-12-01T05:36:34.507Z,3.79
2022-12-01T05:39:01.018Z,3.81
2022-12-01T05:41:27.590Z,3.84
2022-12-01T05:43:53.932Z,3.83
2022-12-01T05:46:20.355Z,3.83
2022-12-01T05:48:47.207Z,3.86
2022-12-01T05:51:16.399Z,3.88
2022-12-01T05:53:43.721Z,3.90
2022-12-01T05:56:10.058Z,3.89
2022-12-01T05:58:36.787Z,3.88
2022-12-01T06:01:03.855Z,3.86
2022-12-01T06:03:30.217Z,3.84
2022-12-01T06:05:56.786Z,3.79
2022-12-01T06:08:23.231Z,3.72
2022-12-01T06:10:49.789Z,3.67
2022-12-01T06:13:16.137Z,3.61
2022-12-01T06:15:42.552Z,3.57
2022-12-01T06:18:09.086Z,3.46
2022-12-01T06:20:35.823Z,3.39
2022-12-01T06:23:02.220Z,3.33
2022-12-01T06:25:28.555Z,3.26
2022-12-01T06:27:59.080Z,3.22
2022-12-01T06:30:26.123Z,3.19
2022-12-01T06:32:52.485Z,3.14
2022-12-01T06:35:19.395Z,3.11
2022-12-01T06:37:45.818Z,3.06
2022-12-01T06:40:12.571Z,3.01
2022-12-01T06:42:38.945Z,2.98
2022-12-01T06:45:05.825Z,2.94
2022-12-01T06:47:32.612Z,2.91
2022-12-01T06:49:58.999Z,2.91
2022-12-01T06:52:25.442Z,2.87
2022-12-01T06:54:51.810Z,2.84
2022-12-01T06:57:18.550Z,2.83
2022-12-01T06:59:45.247Z,2.73
2022-12-01T07:02:11.986Z,2.72
2022-12-01T07:04:38.447Z,2.69
2022-12-01T07:07:06.121Z,2.62
2022-12-01T07:09:32.504Z,2.57
2022-12-01T07:11:58.976Z,2.55
2022-12-01T07:14:26.829Z,2.53
2022-12-01T07:16:53.559Z,2.49
2022-12-01T07:19:20.240Z,2.46
2022-12-01T07:21:46.630Z,2.41
2022-12-01T07:24:13.587Z,2.37
2022-12-01T07:26:41.219Z,2.35
2022-12-01T07:29:09.212Z,2.32
2022-12-01T07:31:36.124Z,2.32
2022-12-01T07:34:02.627Z,2.31
2022-12-01T07:36:28.946Z,2.33
2022-12-01T07:38:55.338Z,2.35
2022-12-01T07:41:21.933Z,2.37
2022-12-01T07:43:48.352Z,2.41
2022-12-01T07:46:24.658Z,2.42
2022-12-01T07:48:52.053Z,2.44
2022-12-01T07:51:19.109Z,2.47
2022-12-01T07:53:47.888Z,2.52
2022-12-01T07:56:14.313Z,2.56
2022-12-01T07:58:41.238Z,2.62
2022-12-01T08:01:10.270Z,2.73
2022-12-01T08:03:37.359Z,2.80
2022-12-01T08:06:05.243Z,2.86
2022-12-01T08:08:33.500Z,2.91
2022-12-01T08:11:02.154Z,2.97
2022-12-01T08:13:28.880Z,3.03
2022-12-01T08:15:55.737Z,3.07
2022-12-01T08:18:23.025Z,3.13
2022-12-01T08:20:50.621Z,3.18
2022-12-01T08:23:17.308Z,3.23
2022-12-01T08:25:43.653Z,3.26
2022-12-01T08:28:10.174Z,3.33
2022-12-01T08:30:36.530Z,3.39
2022-12-01T08:33:03.079Z,3.44
2022-12-01T08:35:29.612Z,3.52
2022-12-01T08:37:55.950Z,3.56
2022-12-01T08:40:22.336Z,3.62
2022-12-01T08:42:48.787Z,3.66
2022-12-01T08:45:15.330Z,3.71
2022-12-01T08:47:41.807Z,3.77
2022-12-01T08:50:08.574Z,3.82
2022-12-01T08:52:35.099Z,3.86
2022-12-01T08:55:02.041Z,3.91
2022-12-01T08:57:31.974Z,3.93
2022-12-01T08:59:58.398Z,3.96
2022-12-01T09:02:24.876Z,3.99
2022-12-01T09:04:51.878Z,4.04
2022-12-01T09:07:25.904Z,4.09
2022-12-01T09:09:53.024Z,4.11
2022-12-01T09:12:19.728Z,4.15
2022-12-01T09:14:48.212Z,4.14
2022-12-01T09:17:15.662Z,4.16
2022-12-01T09:19:43.307Z,4.17
2022-12-01T09:22:11.278Z,4.17
2022-12-01T09:24:38.196Z,4.22
2022-12-01T09:27:05.228Z,4.25
2022-12-01T09:29:31.975Z,4.25
2022-12-01T09:31:59.738Z,4.28
2022-12-01T09:34:26.890Z,4.35
2022-12-01T09:36:56.701Z,4.38
2022-12-01T09:39:23.131Z,4.42
2022-12-01T09:42:08.262Z,4.44
2022-12-01T09:44:57.140Z,4.46
2022-12-01T09:47:31.390Z,4.50
2022-12-01T09:50:16.178Z,4.51
2022-12-01T09:52:46.984Z,4.55
2022-12-01T09:55:16.182Z,4.58
2022-12-01T09:57:44.188Z,4.62
2022-12-01T10:00:15.981Z,4.66
2022-12-01T10:03:21.881Z,4.71
2022-12-01T10:06:25.866Z,4.74
2022-12-01T10:08:47.825Z,4.75
2022-12-01T10:11:30.935Z,4.79
2022-12-01T10:13:59.533Z,4.83
2022-12-01T10:16:53.791Z,4.91
2022-12-01T10:19:41.493Z,4.97
2022-12-01T10:22:58.026Z,5.08
2022-12-01T10:25:27.617Z,5.06
2022-12-01T10:28:07.417Z,5.14
2022-12-01T10:30:39.458Z,5.21
2022-12-01T10:33:33.065Z,5.13
2022-12-01T10:35:59.577Z,5.12
2022-12-01T10:38:29.453Z,5.18
2022-12-01T10:41:00.936Z,5.17
2022-12-01T10:43:49.756Z,5.12
2022-12-01T10:46:52.286Z,5.15
2022-12-01T10:49:19.677Z,5.11
2022-12-01T10:51:52.224Z,5.09
2022-12-01T10:54:19.299Z,5.12
2022-12-01T10:56:48.832Z,5.18
2022-12-01T10:59:21.917Z,5.23
2022-12-01T11:01:48.406Z,5.37
2022-12-01T11:04:36.179Z,5.44
2022-12-01T11:07:04.194Z,5.48
2022-12-01T11:09:31.491Z,5.60
2022-12-01T11:12:01.293Z,5.62
2022-12-01T11:14:44.715Z,5.65
2022-12-01T11:17:35.558Z,5.66
2022-12-01T11:20:30.501Z,5.61
2022-12-01T11:23:18.633Z,5.67
2022-12-01T11:26:02.336Z,5.66
2022-12-01T11:28:29.894Z,5.75
2022-12-01T11:31:02.649Z,5.75
2022-12-01T11:33:31.333Z,5.73
2022-12-01T11:35:58.085Z,5.74
2022-12-01T11:38:31.593Z,5.84
2022-12-01T11:40:58.793Z,5.95
2022-12-01T11:43:39.967Z,6.09
2022-12-01T11:46:09.740Z,6.21
2022-12-01T11:48:36.540Z,6.25
2022-12-01T11:51:18.011Z,6.24
2022-12-01T11:53:44.739Z,6.13
2022-12-01T11:56:20.852Z,6.04
2022-12-01T11:58:49.272Z,5.98
2022-12-01T12:01:27.842Z,5.95
2022-12-01T12:04:09.935Z,5.90
2022-12-01T12:06:53.452Z,5.85
2022-12-01T12:10:01.137Z,5.74
2022-12-01T12:12:39.593Z,5.73
2022-12-01T12:15:13.345Z,5.77
2022-12-01T12:18:18.493Z,5.79
2022-12-01T12:20:53.816Z,5.84
2022-12-01T12:23:44.659Z,5.94
2022-12-01T12:26:16.043Z,5.96
2022-12-01T12:29:14.479Z,5.98
2022-12-01T12:32:12.111Z,5.96
2022-12-01T12:34:55.978Z,5.92
2022-12-01T12:37:36.346Z,5.93
2022-12-01T12:40:42.782Z,5.93
2022-12-01T12:43:29.197Z,6.02
2022-12-01T12:46:08.375Z,6.11
2022-12-01T12:49:18.503Z,6.16
2022-12-01T12:51:50.761Z,6.23
2022-12-01T12:54:34.370Z,6.24
2022-12-01T12:57:06.070Z,6.14
2022-12-01T12:59:51.263Z,6.06
2022-12-01T13:02:29.313Z,5.99
2022-12-01T13:05:17.704Z,5.97
2022-12-01T13:08:10.910Z,5.94
2022-12-01T13:10:46.471Z,5.95
2022-12-01T13:13:18.519Z,5.93
2022-12-01T13:15:47.328Z,5.90
2022-12-01T13:18:31.165Z,5.90
2022-12-01T13:20:58.308Z,5.90
2022-12-01T13:23:25.909Z,5.86
2022-12-01T13:25:55.764Z,5.81
2022-12-01T13:28:27.342Z,5.78
2022-12-01T13:31:02.706Z,5.77
2022-12-01T13:33:29.822Z,5.75
2022-12-01T13:36:29.809Z,5.73
2022-12-01T13:38:44.119Z,5.71
2022-12-01T13:41:19.743Z,5.71
2022-12-01T13:43:57.370Z,5.70
2022-12-01T13:46:27.039Z,5.68
2022-12-01T13:48:56.913Z,5.69
2022-12-01T13:51:25.172Z,5.69
2022-12-01T13:54:25.726Z,5.64
2022-12-01T13:57:03.109Z,5.59
2022-12-01T14:00:05.771Z,5.57
2022-12-01T14:02:36.583Z,5.53
2022-12-01T14:05:24.949Z,5.46
2022-12-01T14:07:53.107Z,5.43
2022-12-01T14:10:30.225Z,5.41
2022-12-01T14:13:01.515Z,5.36
2022-12-01T14:15:32.230Z,5.29
2022-12-01T14:18:29.607Z,5.25
2022-12-01T14:20:56.123Z,5.22
2022-12-01T14:23:33.697Z,5.20
2022-12-01T14:26:09.728Z,5.18
2022-12-01T14:29:09.904Z,5.17
2022-12-01T14:31:36.803Z,5.12
2022-12-01T14:34:18.808Z,5.12
2022-12-01T14:37:05.874Z,5.11
2022-12-01T14:39:38.911Z,5.08
2022-12-01T14:42:11.217Z,5.03
2022-12-01T14:44:54.977Z,5.02
2022-12-01T14:47:44.510Z,5.01
2022-12-01T14:50:24.922Z,4.96
2022-12-01T14:53:01.523Z,4.92
2022-12-01T14:55:36.984Z,4.87
2022-12-01T14:58:07.294Z,4.87
2022-12-01T15:00:38.392Z,4.86
2022-12-01T15:03:09.746Z,4.81
2022-12-01T15:05:41.903Z,4.79
2022-12-01T15:11:25.582Z,4.69
2022-12-01T15:13:54.897Z,4.65
2022-12-01T15:16:32.184Z,4.63
2022-12-01T15:18:58.690Z,4.56
2022-12-01T15:21:30.967Z,4.51
2022-12-01T15:24:05.846Z,4.45
2022-12-01T15:26:35.595Z,4.41
2022-12-01T15:29:46.529Z,4.34
2022-12-01T15:32:17.068Z,4.25
2022-12-01T15:34:46.911Z,4.20
2022-12-01T15:37:16.596Z,4.16
2022-12-01T15:39:46.192Z,4.09
2022-12-01T15:42:24.855Z,4.00
2022-12-01T15:45:00.578Z,3.93
2022-12-01T15:47:44.350Z,3.88
2022-12-01T15:50:41.261Z,3.80
2022-12-01T15:53:22.406Z,3.75
2022-12-01T15:55:54.125Z,3.71
2022-12-01T15:58:26.435Z,3.63
2022-12-01T16:01:14.932Z,3.60
2022-12-01T16:04:04.210Z,3.54
2022-12-01T16:06:33.519Z,3.49
2022-12-01T16:09:19.674Z,3.43
2022-12-01T16:12:06.834Z,3.38
2022-12-01T16:14:34.211Z,3.34
2022-12-01T16:17:00.804Z,3.31
2022-12-01T16:19:32.241Z,3.24
2022-12-01T16:22:16.947Z,3.17
2022-12-01T16:24:52.391Z,3.14
2022-12-01T16:27:25.978Z,3.14
2022-12-01T16:29:59.125Z,3.11
2022-12-01T16:32:41.996Z,3.10
2022-12-01T16:35:34.846Z,3.09
2022-12-01T16:38:12.367Z,3.07
2022-12-01T16:40:41.825Z,3.03
2022-12-01T16:43:14.616Z,2.97
2022-12-01T16:45:41.383Z,2.92
2022-12-01T16:48:09.403Z,2.88
2022-12-01T16:50:36.137Z,2.86
2022-12-01T16:53:02.530Z,2.87
2022-12-01T16:55:37.528Z,2.87
2022-12-01T16:58:04.226Z,2.87
2022-12-01T17:00:30.749Z,2.84
2022-12-01T17:02:57.512Z,2.81
2022-12-01T17:05:24.020Z,2.75
2022-12-01T17:07:50.876Z,2.67
2022-12-01T17:10:17.733Z,2.55
2022-12-01T17:12:44.110Z,2.50
2022-12-01T17:15:11.375Z,2.46
2022-12-01T17:17:38.070Z,2.44
2022-12-01T17:20:06.360Z,2.42
2022-12-01T17:22:33.183Z,2.31
2022-12-01T17:24:59.679Z,2.28
2022-12-01T17:27:27.628Z,2.27
2022-12-01T17:29:54.747Z,2.22
2022-12-01T17:32:21.190Z,2.18
2022-12-01T17:34:47.783Z,2.13
2022-12-01T17:37:20.477Z,2.11
2022-12-01T17:39:47.409Z,2.08
2022-12-01T17:42:13.759Z,2.04
2022-12-01T17:44:40.292Z,2.07
2022-12-01T17:47:06.858Z,2.08
2022-12-01T17:49:35.399Z,2.07
2022-12-01T17:52:01.895Z,2.08
2022-12-01T17:54:28.331Z,2.09
2022-12-01T17:56:54.696Z,1.99
2022-12-01T17:59:21.052Z,1.92
2022-12-01T18:01:48.261Z,1.86
2022-12-01T18:04:14.838Z,1.84
2022-12-01T18:06:41.668Z,1.82
2022-12-01T18:09:08.045Z,1.83
2022-12-01T18:11:34.509Z,1.84
2022-12-01T18:14:01.442Z,1.81
2022-12-01T18:16:30.568Z,1.75
2022-12-01T18:18:58.715Z,1.72
2022-12-01T18:21:26.084Z,1.76
2022-12-01T18:23:55.578Z,1.74
2022-12-01T18:26:23.186Z,1.77
2022-12-01T18:28:56.651Z,1.80
2022-12-01T18:31:23.809Z,1.77
2022-12-01T18:33:51.171Z,1.79
2022-12-01T18:36:23.097Z,1.81
2022-12-01T18:38:51.613Z,1.77
2022-12-01T18:41:18.895Z,1.75
2022-12-01T18:43:45.442Z,1.73
2022-12-01T18:46:13.650Z,1.69
2022-12-01T18:48:59.342Z,1.72
2022-12-01T18:51:25.785Z,1.70
2022-12-01T18:53:56.931Z,1.68
2022-12-01T18:56:23.644Z,1.71
2022-12-01T18:59:18.323Z,1.69
2022-12-01T19:01:46.412Z,1.67
2022-12-01T19:04:15.294Z,1.70
2022-12-01T19:06:43.074Z,1.70
2022-12-01T19:09:11.928Z,1.65
2022-12-01T19:11:40.759Z,1.60
2022-12-01T19:14:08.415Z,1.66
2022-12-01T19:16:34.848Z,1.72
2022-12-01T19:19:01.705Z,1.73
2022-12-01T19:21:28.111Z,1.77
2022-12-01T19:23:54.565Z,1.83
2022-12-01T19:26:22.176Z,1.89
2022-12-01T19:28:48.931Z,1.92
2022-12-01T19:31:19.237Z,2.00
2022-12-01T19:33:46.690Z,2.04
2022-12-01T19:36:19.301Z,2.08
2022-12-01T19:38:45.929Z,2.09
2022-12-01T19:41:13.715Z,2.13
2022-12-01T19:43:40.570Z,2.16
2022-12-01T19:46:09.172Z,2.19
2022-12-01T19:48:36.140Z,2.23
2022-12-01T19:51:03.051Z,2.27
2022-12-01T19:53:33.581Z,2.32
2022-12-01T19:56:04.726Z,2.38
2022-12-01T19:58:34.560Z,2.38
2022-12-01T20:01:09.097Z,2.45
2022-12-01T20:03:35.879Z,2.48
2022-12-01T20:06:08.356Z,2.55
2022-12-01T20:08:36.116Z,2.55
2022-12-01T20:11:04.307Z,2.57
2022-12-01T20:13:32.578Z,2.59
2022-12-01T20:16:03.169Z,2.61
2022-12-01T20:18:29.717Z,2.63
2022-12-01T20:21:07.237Z,2.64
2022-12-01T20:23:34.598Z,2.68
2022-12-01T20:26:07.235Z,2.71
2022-12-01T20:28:34.913Z,2.71
2022-12-01T20:31:02.470Z,2.73
2022-12-01T20:33:29.461Z,2.75
2022-12-01T20:35:55.926Z,2.78
2022-12-01T20:38:27.305Z,2.79
2022-12-01T20:40:54.211Z,2.80
2022-12-01T20:43:20.664Z,2.84
2022-12-01T20:45:47.253Z,2.84
2022-12-01T20:48:14.461Z,2.88
2022-12-01T20:50:40.939Z,2.91
2022-12-01T20:53:07.467Z,2.92
2022-12-01T20:55:36.663Z,2.95
2022-12-01T20:58:05.194Z,2.97
2022-12-01T21:00:31.903Z,2.98
2022-12-01T21:02:58.254Z,2.99
2022-12-01T21:05:25.527Z,3.00
2022-12-01T21:07:51.955Z,3.03
2022-12-01T21:10:20.339Z,3.03
2022-12-01T21:13:10.623Z,3.05
2022-12-01T21:15:58.611Z,3.06
2022-12-01T21:18:35.788Z,3.08
2022-12-01T21:21:09.131Z,3.10
2022-12-01T21:23:35.468Z,3.11
2022-12-01T21:26:01.836Z,3.13
2022-12-01T21:28:28.272Z,3.14
2022-12-01T21:31:01.798Z,3.15
2022-12-01T21:33:32.681Z,3.17
2022-12-01T21:36:00.925Z,3.20
2022-12-01T21:38:27.483Z,3.20
2022-12-01T21:40:54.541Z,3.22
2022-12-01T21:43:23.678Z,3.25
2022-12-01T21:45:53.125Z,3.26
2022-12-01T21:48:23.031Z,3.28
2022-12-01T21:50:58.230Z,3.28
2022-12-01T21:53:30.166Z,3.31
2022-12-01T21:55:56.682Z,3.33
2022-12-01T21:58:28.033Z,3.34
2022-12-01T22:00:56.816Z,3.37
2022-12-01T22:03:26.321Z,3.40
2022-12-01T22:06:27.843Z,3.46
2022-12-01T22:08:46.793Z,3.48
2022-12-01T22:11:18.719Z,3.49
2022-12-01T22:13:49.759Z,3.51
2022-12-01T22:16:33.802Z,3.52
2022-12-01T22:19:08.273Z,3.54
2022-12-01T22:21:39.661Z,3.56
2022-12-01T22:24:09.020Z,3.56
2022-12-01T22:26:37.455Z,3.58
2022-12-01T22:29:22.688Z,3.59
2022-12-01T22:31:49.252Z,3.60
2022-12-01T22:34:16.878Z,3.60
2022-12-01T22:36:43.299Z,3.62
2022-12-01T22:39:26.902Z,3.62
2022-12-01T22:42:01.109Z,3.61
2022-12-01T22:44:30.421Z,3.60
2022-12-01T22:47:02.134Z,3.58
2022-12-01T22:49:29.503Z,3.57
2022-12-01T22:52:00.953Z,3.56
2022-12-01T22:54:27.410Z,3.56
2022-12-01T22:57:01.944Z,3.54
2022-12-01T22:59:33.760Z,3.53
2022-12-01T23:02:06.423Z,3.53
2022-12-01T23:04:38.203Z,3.53
2022-12-01T23:07:28.213Z,3.51
2022-12-01T23:09:58.480Z,3.50
2022-12-01T23:12:33.227Z,3.49
2022-12-01T23:15:27.085Z,3.50
2022-12-01T23:17:54.048Z,3.47
2022-12-01T23:20:20.351Z,3.47
2022-12-01T23:22:47.663Z,3.46
2022-12-01T23:25:16.774Z,3.44
2022-12-01T23:27:45.365Z,3.42
2022-12-01T23:30:13.546Z,3.43
2022-12-01T23:32:40.119Z,3.43
2022-12-01T23:35:13.428Z,3.44
2022-12-01T23:37:42.667Z,3.42
2022-12-01T23:40:25.727Z,3.40
2022-12-01T23:42:52.235Z,3.41
2022-12-01T23:45:24.226Z,3.40
2022-12-01T23:47:53.154Z,3.39
2022-12-01T23:50:23.414Z,3.40
2022-12-01T23:52:50.027Z,3.39
2022-12-01T23:55:27.110Z,3.38
2022-12-01T23:57:54.494Z,3.39
